Time;durP1;ratioP1;P1;durP2;ratioP2;P2;SDS_P1;SDS_P2;PMS_P1;PMS_P2;Temp;Humidity;BMP_temperature;BMP_pressure;BME280_temperature;BME280_humidity;BME280_pressure;Samples;Min_cycle;Max_cycle;Signal;HPM_P1;HPM_P2
2024/01/03 00:03:56;;;;;;;7.55;1.13;;;;;;;10.58;100.00;98086.41;10337906;28;20056;-61
2024/01/03 00:09:18;;;;;;;4.13;0.93;;;;;;;10.56;100.00;98083.13;10347452;28;20068;-60
2024/01/03 00:14:40;;;;;;;7.45;1.10;;;;;;;10.58;100.00;98076.06;10370286;28;20459;-61
2024/01/03 00:20:02;;;;;;;5.40;1.20;;;;;;;10.55;100.00;98068.53;10349215;28;20056;-60
2024/01/03 00:25:29;;;;;;;6.28;1.23;;;;;;;10.53;100.00;98075.56;10343961;28;20525;-60
2024/01/03 00:30:50;;;;;;;;;;;;;;;10.62;100.00;98080.06;10345578;28;20155;-60
2024/01/03 00:36:15;;;;;;;6.82;1.30;;;;;;;10.59;100.00;98082.88;10344029;28;19925;-61
2024/01/03 00:41:37;;;;;;;7.38;0.88;;;;;;;10.54;100.00;98097.91;10355644;28;20136;-60
2024/01/03 00:46:59;;;;;;;4.75;0.82;;;;;;;10.50;100.00;98080.97;10352013;28;20049;-61
2024/01/03 00:52:23;;;;;;;7.00;1.05;;;;;;;10.44;100.00;98091.75;10368065;28;20042;-62
2024/01/03 00:58:06;;;;;;;7.90;1.08;;;;;;;10.26;100.00;98087.94;10330600;28;20254;-61
2024/01/03 01:03:33;;;;;;;4.65;0.75;;;;;;;10.29;100.00;98092.91;10347230;28;20046;-60
2024/01/03 01:08:56;;;;;;;;;;;;;;;10.25;100.00;98096.63;10335116;28;20045;-60
2024/01/03 01:14:17;;;;;;;3.88;0.80;;;;;;;10.06;100.00;98116.94;10353826;28;19929;-60
2024/01/03 01:19:39;;;;;;;3.45;0.75;;;;;;;9.96;100.00;98113.38;10344352;28;20053;-62
2024/01/03 01:25:01;;;;;;;2.65;0.70;;;;;;;9.82;100.00;98118.66;10349165;28;20112;-60
2024/01/03 01:30:22;;;;;;;3.30;0.73;;;;;;;9.88;100.00;98124.25;10347007;28;20046;-61
2024/01/03 01:35:44;;;;;;;4.97;0.85;;;;;;;9.86;100.00;98120.13;10360388;28;20049;-60
2024/01/03 01:41:06;;;;;;;4.07;0.60;;;;;;;9.79;100.00;98144.72;10353635;28;20046;-61
2024/01/03 01:46:28;;;;;;;6.32;0.82;;;;;;;9.80;100.00;98128.28;10362822;28;20054;-60
2024/01/03 01:51:49;;;;;;;0.98;0.40;;;;;;;9.68;100.00;98136.91;10352749;28;20054;-60
2024/01/03 01:57:13;;;;;;;3.25;0.57;;;;;;;9.66;100.00;98137.00;10354076;28;20042;-61
2024/01/03 02:02:36;;;;;;;4.35;0.82;;;;;;;9.58;100.00;98122.97;10370920;28;20046;-60
2024/01/03 02:08:00;;;;;;;1.57;0.40;;;;;;;9.43;100.00;98129.22;10348822;28;20053;-60
2024/01/03 02:13:22;;;;;;;1.77;0.60;;;;;;;9.40;100.00;98143.13;10359930;28;20453;-61
2024/01/03 02:18:44;;;;;;;5.28;0.63;;;;;;;9.36;100.00;98108.16;10364105;28;20034;-60
2024/01/03 02:24:06;;;;;;;4.25;0.93;;;;;;;9.30;100.00;98125.81;10357542;28;20073;-60
2024/01/03 02:29:28;;;;;;;1.98;0.60;;;;;;;9.33;100.00;98120.44;10351504;28;20064;-60
2024/01/03 02:34:49;;;;;;;6.72;0.88;;;;;;;9.24;100.00;98118.50;10349756;28;20156;-61
2024/01/03 02:40:11;;;;;;;4.03;0.90;;;;;;;9.24;100.00;98131.38;10352715;28;20541;-60
2024/01/03 02:45:33;;;;;;;6.00;1.10;;;;;;;9.20;100.00;98120.44;10338122;28;20064;-60
2024/01/03 02:50:55;;;;;;;3.05;0.93;;;;;;;9.30;100.00;98133.56;10349651;28;20133;-62
2024/01/03 02:56:16;;;;;;;11.10;1.38;;;;;;;9.17;100.00;98117.25;10347403;28;20399;-60
2024/01/03 03:01:38;;;;;;;6.50;1.02;;;;;;;9.18;100.00;98148.09;10346232;28;20050;-61
2024/01/03 03:07:00;;;;;;;5.60;1.05;;;;;;;9.18;100.00;98142.13;10349622;28;20056;-60
2024/01/03 03:12:22;;;;;;;5.43;0.98;;;;;;;9.33;100.00;98131.59;10352413;28;20042;-61
2024/01/03 03:17:43;;;;;;;4.85;0.90;;;;;;;9.27;100.00;98120.84;10353169;28;20410;-61
2024/01/03 03:23:05;;;;;;;4.28;0.80;;;;;;;9.28;100.00;98154.31;10351714;28;20589;-60
2024/01/03 03:28:27;;;;;;;6.20;0.68;;;;;;;9.39;100.00;98171.63;10348422;28;20050;-61
2024/01/03 03:33:48;;;;;;;3.30;0.73;;;;;;;9.36;100.00;98152.00;10350975;28;20056;-61
2024/01/03 03:39:13;;;;;;;2.33;0.75;;;;;;;9.35;100.00;98144.38;10347443;28;20407;-60
2024/01/03 03:44:35;;;;;;;3.45;0.77;;;;;;;9.38;100.00;98185.44;10348907;28;20046;-60
2024/01/03 03:49:57;;;;;;;3.35;0.80;;;;;;;9.44;100.00;98159.25;10344265;28;20050;-61
2024/01/03 03:55:19;;;;;;;4.70;0.60;;;;;;;9.56;100.00;98181.66;10356028;28;20037;-60
2024/01/03 04:00:40;;;;;;;1.83;0.40;;;;;;;9.50;100.00;98174.31;10350419;28;20052;-60
2024/01/03 04:06:03;;;;;;;3.03;0.60;;;;;;;9.47;100.00;98184.84;10347597;28;20066;-61
2024/01/03 04:11:25;;;;;;;2.17;0.47;;;;;;;9.59;100.00;98189.16;10353272;28;20169;-60
2024/01/03 04:16:47;;;;;;;3.90;0.47;;;;;;;9.53;100.00;98205.91;10339561;28;20109;-60
2024/01/03 04:22:09;;;;;;;2.25;0.52;;;;;;;9.53;100.00;98192.16;10367341;28;20151;-60
2024/01/03 04:27:30;;;;;;;2.60;0.50;;;;;;;9.49;100.00;98199.28;10347582;28;20121;-60
2024/01/03 04:32:52;;;;;;;3.40;0.60;;;;;;;9.44;100.00;98221.19;10343414;28;20567;-60
2024/01/03 04:38:14;;;;;;;2.58;0.40;;;;;;;9.44;100.00;98247.00;10346220;28;20056;-62
2024/01/03 04:43:36;;;;;;;5.65;0.70;;;;;;;9.41;100.00;98240.31;10331938;28;20102;-60
2024/01/03 04:48:57;;;;;;;4.10;0.40;;;;;;;9.35;100.00;98257.94;10346087;28;20184;-59
2024/01/03 04:54:19;;;;;;;2.15;0.40;;;;;;;9.28;100.00;98259.25;10343122;28;20048;-60
2024/01/03 04:59:43;;;;;;;1.10;0.30;;;;;;;9.30;100.00;98284.06;10344405;28;20089;-60
2024/01/03 05:05:05;;;;;;;2.47;0.20;;;;;;;9.18;100.00;98278.84;10351763;28;20133;-61
2024/01/03 05:10:27;;;;;;;1.17;0.20;;;;;;;9.08;100.00;98276.88;10354539;28;20051;-60
2024/01/03 05:15:48;;;;;;;0.30;0.10;;;;;;;9.06;100.00;98291.59;10353917;28;20141;-60
2024/01/03 05:21:12;;;;;;;0.50;0.20;;;;;;;9.03;100.00;98283.25;10354209;28;20034;-60
2024/01/03 05:26:34;;;;;;;1.10;0.20;;;;;;;8.99;100.00;98287.78;10348617;28;20445;-60
2024/01/03 05:31:56;;;;;;;0.85;0.40;;;;;;;9.00;100.00;98288.63;10349964;28;20118;-60
2024/01/03 05:37:18;;;;;;;6.40;0.90;;;;;;;9.07;100.00;98285.53;10355917;28;20056;-61
2024/01/03 05:42:40;;;;;;;11.43;1.70;;;;;;;9.10;100.00;98284.53;10358389;28;20120;-60
2024/01/03 05:48:01;;;;;;;13.95;1.80;;;;;;;9.30;100.00;98280.63;10364382;28;20053;-60
2024/01/03 05:53:23;;;;;;;15.07;2.20;;;;;;;9.45;100.00;98303.66;10375192;28;20042;-60
2024/01/03 05:58:45;;;;;;;14.80;1.73;;;;;;;9.71;100.00;98305.34;10372038;28;20415;-60
2024/01/03 06:04:07;;;;;;;13.48;1.98;;;;;;;9.63;100.00;98324.88;10334427;28;20053;-60
2024/01/03 06:09:29;;;;;;;16.73;2.22;;;;;;;9.67;100.00;98316.00;10343284;28;20048;-60
2024/01/03 06:14:50;;;;;;;14.05;1.63;;;;;;;9.75;100.00;98308.53;10384830;28;20077;-60
2024/01/03 06:20:12;;;;;;;17.23;2.10;;;;;;;9.86;100.00;98329.31;10351146;28;20060;-60
2024/01/03 06:25:36;;;;;;;12.25;1.75;;;;;;;9.91;100.00;98346.16;10353738;28;20042;-61
2024/01/03 06:30:59;;;;;;;19.50;2.25;;;;;;;9.93;100.00;98343.47;10349662;28;20041;-60
2024/01/03 06:36:20;;;;;;;16.67;2.08;;;;;;;10.08;100.00;98345.84;10342851;28;20104;-60
2024/01/03 06:41:43;;;;;;;8.95;1.63;;;;;;;10.17;97.92;98362.50;10347276;28;20061;-60
2024/01/03 06:47:05;;;;;;;13.60;1.65;;;;;;;10.26;96.43;98376.56;10344791;28;20058;-60
2024/01/03 06:52:31;;;;;;;13.65;2.05;;;;;;;10.23;98.23;98381.94;10359111;28;20040;-61
2024/01/03 06:57:53;;;;;;;13.38;2.38;;;;;;;10.19;99.01;98398.56;10352987;28;20128;-60
2024/01/03 07:03:15;;;;;;;16.85;2.33;;;;;;;10.25;98.66;98401.59;10366235;28;20045;-59
2024/01/03 07:08:37;;;;;;;14.88;1.77;;;;;;;10.37;97.29;98416.25;10352153;28;20049;-61
2024/01/03 07:13:59;;;;;;;11.52;2.05;;;;;;;10.30;98.54;98432.28;10354689;28;20050;-60
2024/01/03 07:19:21;;;;;;;13.25;2.10;;;;;;;10.20;99.88;98420.91;10349445;28;20097;-60
2024/01/03 07:24:42;;;;;;;22.20;3.10;;;;;;;10.19;100.00;98422.66;10349949;28;20046;-60
2024/01/03 07:30:05;;;;;;;14.55;2.10;;;;;;;10.29;99.84;98412.53;10356523;28;20053;-60
2024/01/03 07:35:27;;;;;;;16.25;2.58;;;;;;;10.24;98.99;98428.34;10335557;28;20050;-59
2024/01/03 07:40:48;;;;;;;19.55;2.53;;;;;;;10.16;99.56;98447.88;10345231;28;20052;-60
2024/01/03 07:46:10;;;;;;;17.88;2.60;;;;;;;10.09;100.00;98457.78;10352644;28;20064;-61
2024/01/03 07:51:37;;;;;;;13.57;1.80;;;;;;;10.07;100.00;98455.28;10350219;28;20061;-60
2024/01/03 07:57:01;;;;;;;13.90;2.13;;;;;;;10.10;99.37;98464.63;10347537;28;20056;-60
2024/01/03 08:02:23;;;;;;;12.32;1.75;;;;;;;10.02;98.90;98466.84;10355857;28;20056;-60
2024/01/03 08:07:44;;;;;;;10.82;1.85;;;;;;;10.06;98.48;98483.81;10351414;28;20369;-60
2024/01/03 08:13:06;;;;;;;12.65;1.63;;;;;;;10.05;99.62;98500.25;10341401;28;20045;-60
2024/01/03 08:18:31;;;;;;;10.70;1.73;;;;;;;10.06;99.79;98514.81;10343394;28;20054;-61
2024/01/03 08:23:52;;;;;;;14.15;1.67;;;;;;;10.19;99.39;98474.34;10344983;28;20054;-60
2024/01/03 08:29:15;;;;;;;20.20;2.33;;;;;;;10.14;100.00;98497.09;10340025;28;20443;-61
2024/01/03 08:34:36;;;;;;;16.15;2.28;;;;;;;10.10;100.00;98505.97;10352599;28;20125;-60
2024/01/03 08:39:59;;;;;;;15.77;2.40;;;;;;;10.05;100.00;98497.66;10370185;28;20041;-62
2024/01/03 08:45:20;;;;;;;17.63;2.75;;;;;;;10.01;100.00;98506.53;10375675;28;20090;-62
2024/01/03 08:50:43;;;;;;;19.00;2.33;;;;;;;10.04;100.00;98501.16;10357602;28;20046;-61
2024/01/03 08:56:15;;;;;;;23.90;2.50;;;;;;;10.14;100.00;98502.25;10359105;28;20487;-60
2024/01/03 09:01:37;;;;;;;10.75;2.00;;;;;;;10.25;99.59;98494.63;10344339;28;20058;-62
2024/01/03 09:06:59;;;;;;;9.90;2.15;;;;;;;10.38;96.28;98510.16;10349091;28;20116;-60
2024/01/03 09:12:22;;;;;;;11.75;1.98;;;;;;;10.44;94.76;98531.25;10347938;28;20054;-60
2024/01/03 09:17:44;;;;;;;9.68;1.67;;;;;;;10.43;94.94;98524.44;10345317;28;20048;-60
2024/01/03 09:23:05;;;;;;;15.55;2.20;;;;;;;10.41;97.00;98541.78;10350926;28;20049;-60
2024/01/03 09:28:27;;;;;;;9.77;1.90;;;;;;;10.23;99.01;98537.00;10331464;28;20508;-60
2024/01/03 09:33:49;;;;;;;11.13;1.88;;;;;;;10.17;99.32;98545.16;10351710;28;20041;-61
2024/01/03 09:39:12;;;;;;;14.88;2.10;;;;;;;10.16;99.05;98562.44;10359943;28;20102;-61
2024/01/03 09:44:34;;;;;;;14.32;2.50;;;;;;;10.23;99.36;98563.69;10349201;28;20056;-60
2024/01/03 09:49:56;;;;;;;13.05;2.30;;;;;;;10.37;97.90;98571.34;10343713;28;20050;-60
2024/01/03 09:55:18;;;;;;;14.98;2.35;;;;;;;10.39;96.18;98590.19;10334004;28;20132;-61
2024/01/03 10:00:39;;;;;;;11.30;1.73;;;;;;;10.38;95.01;98585.97;10347454;28;20046;-60
2024/01/03 10:06:04;;;;;;;18.55;1.70;;;;;;;10.43;94.90;98581.31;10360829;28;20840;-60
2024/01/03 10:11:26;;;;;;;12.05;1.67;;;;;;;10.46;95.32;98591.44;10372928;28;20046;-60
2024/01/03 10:16:48;;;;;;;7.50;1.55;;;;;;;10.57;94.76;98591.56;10347613;28;20085;-60
2024/01/03 10:22:18;;;;;;;11.82;1.70;;;;;;;10.59;93.61;98596.63;10351098;28;20529;-60
2024/01/03 10:27:40;;;;;;;11.00;1.35;;;;;;;10.56;93.39;98612.34;10359037;28;20568;-59
2024/01/03 10:33:07;;;;;;;10.73;1.30;;;;;;;10.63;92.53;98614.44;10351454;28;20050;-59
2024/01/03 10:38:30;;;;;;;13.02;1.63;;;;;;;10.62;92.49;98612.75;10351434;28;20056;-61
2024/01/03 10:43:57;;;;;;;8.10;1.23;;;;;;;10.61;91.85;98608.53;10346695;28;20119;-60
2024/01/03 10:49:20;;;;;;;7.85;1.40;;;;;;;10.70;92.55;98620.84;10337765;28;20050;-62
2024/01/03 10:54:44;;;;;;;9.25;1.60;;;;;;;10.64;92.98;98621.25;10349210;28;20514;-60
2024/01/03 11:00:22;;;;;;;10.25;1.40;;;;;;;10.62;93.34;98620.53;10368501;28;20054;-58
2024/01/03 11:06:32;;;;;;;9.18;1.70;;;;;;;10.63;92.76;98613.59;10350299;28;20046;-59
2024/01/03 11:12:07;;;;;;;8.15;1.52;;;;;;;10.71;92.39;98612.16;10340856;28;20042;-59
2024/01/03 11:17:33;;;;;;;10.38;1.65;;;;;;;10.75;92.73;98617.97;10352259;28;20129;-60
2024/01/03 11:23:02;;;;;;;9.43;1.95;;;;;;;10.78;92.47;98617.78;10355801;28;20046;-60
2024/01/03 11:28:36;;;;;;;9.20;1.45;;;;;;;10.74;90.30;98603.38;10348341;28;20082;-59
2024/01/03 11:34:01;;;;;;;7.50;1.50;;;;;;;10.74;90.27;98616.31;10365799;28;20045;-61
2024/01/03 11:39:35;;;;;;;7.13;1.00;;;;;;;10.87;88.60;98614.56;10356177;28;20081;-60
2024/01/03 11:45:00;;;;;;;8.52;1.40;;;;;;;10.89;88.12;98626.47;10349310;28;20054;-59
2024/01/03 11:50:29;;;;;;;;;;;;;;;10.85;87.69;98630.19;10348151;28;20089;-59
2024/01/03 11:55:55;;;;;;;7.80;1.50;;;;;;;10.92;87.03;98613.34;10354361;28;19976;-59
2024/01/03 12:01:16;;;;;;;8.10;1.52;;;;;;;10.88;87.76;98624.81;10357238;28;20108;-61
2024/01/03 12:06:41;;;;;;;6.05;1.20;;;;;;;10.81;87.41;98617.56;10332292;28;20053;-59
2024/01/03 12:12:04;;;;;;;12.57;2.10;;;;;;;10.77;88.82;98622.09;10348207;28;20064;-62
2024/01/03 12:17:28;;;;;;;10.13;1.52;;;;;;;10.76;89.78;98607.53;10347962;28;20157;-61
2024/01/03 12:22:50;;;;;;;11.00;1.50;;;;;;;10.72;91.18;98621.59;10337018;28;20054;-60
2024/01/03 12:28:19;;;;;;;11.05;1.98;;;;;;;10.84;90.67;98633.69;10369845;28;20506;-59
2024/01/03 12:33:45;;;;;;;14.48;2.28;;;;;;;10.93;89.95;98622.72;10334291;28;20044;-59
2024/01/03 12:39:07;;;;;;;11.60;1.67;;;;;;;10.96;90.51;98614.78;10347990;28;20056;-59
2024/01/03 12:44:28;;;;;;;11.60;1.88;;;;;;;11.12;89.64;98612.81;10349204;28;20049;-61
2024/01/03 12:49:53;;;;;;;10.05;1.92;;;;;;;11.08;89.67;98613.94;10349154;28;20101;-59
2024/01/03 12:55:15;;;;;;;12.48;1.98;;;;;;;11.04;90.62;98620.25;10337266;28;20052;-59
2024/01/03 13:00:37;;;;;;;12.82;2.10;;;;;;;10.99;91.34;98601.63;10359112;28;20046;-59
2024/01/03 13:05:58;;;;;;;11.93;2.03;;;;;;;10.93;91.58;98611.56;10342033;28;20073;-61
2024/01/03 13:11:20;;;;;;;13.45;2.13;;;;;;;10.94;92.08;98608.88;10342772;28;20046;-59
2024/01/03 13:16:42;;;;;;;13.48;2.40;;;;;;;11.00;92.43;98616.25;10339742;28;20707;-59
2024/01/03 13:22:04;;;;;;;16.60;2.22;;;;;;;10.95;93.05;98622.66;10345267;28;20095;-59
2024/01/03 13:27:25;;;;;;;15.43;2.42;;;;;;;10.88;93.10;98619.63;10360153;28;20126;-59
2024/01/03 13:32:50;;;;;;;20.30;2.67;;;;;;;10.83;93.90;98621.72;10346874;28;20054;-62
2024/01/03 13:38:18;;;;;;;15.10;2.35;;;;;;;10.80;94.25;98627.09;10357045;28;20081;-60
2024/01/03 13:43:39;;;;;;;19.30;2.50;;;;;;;10.66;97.26;98629.75;10344360;28;20050;-59
2024/01/03 13:49:01;;;;;;;13.85;2.20;;;;;;;10.54;98.24;98638.31;10339702;28;20057;-59
2024/01/03 13:54:23;;;;;;;20.55;2.30;;;;;;;10.47;99.18;98644.81;10337705;28;20062;-59
2024/01/03 13:59:44;;;;;;;15.23;2.13;;;;;;;10.49;99.19;98648.13;10359986;28;20460;-59
2024/01/03 14:05:06;;;;;;;8.88;1.90;;;;;;;10.40;100.00;98647.91;10359224;28;20072;-60
2024/01/03 14:10:28;;;;;;;11.70;2.15;;;;;;;10.35;100.00;98649.91;10351603;28;20467;-59
2024/01/03 14:15:50;;;;;;;13.80;1.70;;;;;;;10.36;99.36;98647.25;10350199;28;20134;-59
2024/01/03 14:21:12;;;;;;;9.80;1.92;;;;;;;10.38;99.16;98655.75;10341822;28;20532;-60
2024/01/03 14:26:34;;;;;;;11.25;2.15;;;;;;;10.43;96.49;98653.69;10343756;28;20080;-59
2024/01/03 14:31:57;;;;;;;5.35;1.48;;;;;;;10.44;97.22;98652.75;10345954;28;20045;-60
2024/01/03 14:37:21;;;;;;;12.70;2.10;;;;;;;10.44;97.13;98649.38;10356873;28;20054;-59
2024/01/03 14:42:52;;;;;;;18.55;2.38;;;;;;;10.38;98.13;98650.59;10354811;28;20048;-59
2024/01/03 14:48:14;;;;;;;13.25;1.80;;;;;;;10.36;98.75;98657.59;10362568;28;20137;-59
2024/01/03 14:53:36;;;;;;;16.55;2.35;;;;;;;10.33;99.25;98657.78;10346809;28;20046;-60
2024/01/03 14:58:58;;;;;;;14.90;2.25;;;;;;;10.27;99.10;98653.03;10353241;28;20053;-59
2024/01/03 15:04:20;;;;;;;14.02;2.00;;;;;;;10.30;99.43;98650.22;10348497;28;20038;-59
2024/01/03 15:09:41;;;;;;;10.65;2.20;;;;;;;10.17;100.00;98664.84;10346791;28;20502;-59
2024/01/03 15:15:03;;;;;;;11.23;1.80;;;;;;;10.08;100.00;98670.56;10364505;28;20083;-60
2024/01/03 15:20:25;;;;;;;11.85;1.52;;;;;;;10.01;100.00;98682.22;10353635;28;20069;-59
2024/01/03 15:25:48;;;;;;;12.57;2.17;;;;;;;9.95;100.00;98690.34;10353694;28;20416;-59
2024/01/03 15:31:09;;;;;;;11.18;2.08;;;;;;;9.92;100.00;98682.78;10348882;28;20140;-60
2024/01/03 15:36:31;;;;;;;11.68;1.67;;;;;;;9.82;100.00;98687.69;10360002;28;20049;-59
2024/01/03 15:41:53;;;;;;;10.00;1.85;;;;;;;9.80;100.00;98678.38;10375808;28;20372;-60
2024/01/03 15:47:18;;;;;;;6.68;1.48;;;;;;;9.79;100.00;98689.63;10351275;28;20061;-61
2024/01/03 15:52:43;;;;;;;11.43;2.05;;;;;;;9.79;100.00;98679.31;10337788;28;20042;-59
2024/01/03 15:58:05;;;;;;;12.60;1.65;;;;;;;9.76;100.00;98684.66;10344424;28;20113;-59
2024/01/03 16:03:31;;;;;;;10.40;2.17;;;;;;;9.71;100.00;98689.25;10356422;28;20109;-60
2024/01/03 16:08:54;;;;;;;11.27;1.80;;;;;;;9.64;100.00;98672.50;10354997;28;22102;-59
2024/01/03 16:14:18;;;;;;;15.95;1.83;;;;;;;9.63;100.00;98676.00;10339593;28;20491;-61
2024/01/03 16:19:40;;;;;;;13.48;1.60;;;;;;;9.59;100.00;98684.84;10348316;28;20163;-59
2024/01/03 16:25:10;;;;;;;7.50;1.60;;;;;;;9.57;100.00;98673.78;10353491;28;20105;-59
2024/01/03 16:30:34;;;;;;;6.50;1.50;;;;;;;9.57;100.00;98682.38;10349871;28;20656;-62
2024/01/03 16:35:56;;;;;;;6.55;1.50;;;;;;;9.59;100.00;98695.19;10351639;28;20092;-59
2024/01/03 16:41:19;;;;;;;9.07;1.50;;;;;;;9.51;100.00;98687.06;10344432;28;20050;-61
2024/01/03 16:46:46;;;;;;;8.40;2.58;;;;;;;9.51;100.00;98687.06;10349528;28;20121;-61
2024/01/03 16:52:08;;;;;;;13.07;2.03;;;;;;;9.51;100.00;98702.53;10348931;28;20065;-60
2024/01/03 16:57:29;;;;;;;10.73;1.90;;;;;;;9.47;100.00;98706.25;10348354;28;20074;-60
2024/01/03 17:02:52;;;;;;;5.40;1.80;;;;;;;9.43;100.00;98695.25;10345876;28;20073;-61
2024/01/03 17:08:13;;;;;;;7.82;1.42;;;;;;;9.44;100.00;98696.09;10348758;28;20050;-61
2024/01/03 17:13:36;;;;;;;7.15;1.35;;;;;;;9.41;100.00;98704.88;10355446;28;20053;-60
2024/01/03 17:18:58;;;;;;;9.00;1.75;;;;;;;9.40;100.00;98702.34;10356142;28;20053;-60
2024/01/03 17:24:20;;;;;;;7.07;1.50;;;;;;;9.37;100.00;98705.13;10345566;28;20542;-61
2024/01/03 17:29:42;;;;;;;6.80;1.65;;;;;;;9.31;100.00;98705.47;10361808;28;20060;-61
2024/01/03 17:35:04;;;;;;;8.23;1.70;;;;;;;9.28;100.00;98705.66;10349404;28;20074;-61
2024/01/03 17:40:26;;;;;;;7.50;1.73;;;;;;;9.25;100.00;98711.84;10346963;28;20046;-60
2024/01/03 17:45:47;;;;;;;11.05;1.88;;;;;;;9.22;100.00;98716.34;10355358;28;20410;-61
2024/01/03 17:51:10;;;;;;;6.68;1.48;;;;;;;9.18;100.00;98714.84;10361758;28;20049;-61
2024/01/03 17:56:32;;;;;;;5.75;1.48;;;;;;;9.14;100.00;98715.03;10350929;28;20050;-61
2024/01/03 18:01:54;;;;;;;7.10;1.30;;;;;;;9.12;100.00;98716.88;10355930;28;20049;-61
2024/01/03 18:07:15;;;;;;;6.82;1.00;;;;;;;9.13;100.00;98721.13;10350813;28;20082;-61
2024/01/03 18:12:37;;;;;;;4.10;1.00;;;;;;;9.14;100.00;98735.69;10358863;28;20174;-62
2024/01/03 18:17:59;;;;;;;5.65;1.27;;;;;;;9.14;100.00;98725.38;10351447;28;20045;-60
2024/01/03 18:23:21;;;;;;;3.80;1.10;;;;;;;9.11;100.00;98730.72;10353223;28;20042;-61
2024/01/03 18:28:43;;;;;;;8.15;1.60;;;;;;;9.13;100.00;98723.72;10343257;28;20139;-60
2024/01/03 18:34:05;;;;;;;5.43;1.52;;;;;;;9.13;100.00;98731.47;10344140;28;20076;-61
2024/01/03 18:39:27;;;;;;;6.25;1.40;;;;;;;9.12;100.00;98727.19;10356791;28;20093;-61
2024/01/03 18:44:49;;;;;;;4.00;1.58;;;;;;;9.10;100.00;98729.03;10351720;28;20049;-60
2024/01/03 18:50:10;;;;;;;5.20;1.50;;;;;;;9.11;100.00;98737.63;10346831;28;20046;-60
2024/01/03 18:55:32;;;;;;;5.07;1.50;;;;;;;9.10;100.00;98744.50;10354949;28;20145;-60
2024/01/03 19:00:55;;;;;;;8.18;1.80;;;;;;;9.10;100.00;98747.09;10351353;28;20056;-61
2024/01/03 19:06:17;;;;;;;5.57;1.70;;;;;;;9.10;100.00;98744.50;10358877;28;20052;-60
2024/01/03 19:11:39;;;;;;;4.07;2.00;;;;;;;9.09;100.00;98758.34;10361956;28;20506;-58
2024/01/03 19:17:02;;;;;;;9.68;2.38;;;;;;;9.08;100.00;98767.00;10359843;28;20053;-60
2024/01/03 19:22:24;;;;;;;8.65;2.38;;;;;;;9.09;100.00;98778.97;10351982;28;20049;-60
2024/01/03 19:27:46;;;;;;;8.48;2.28;;;;;;;9.03;100.00;98769.00;10353260;28;20049;-60
2024/01/03 19:33:07;;;;;;;11.52;2.50;;;;;;;9.00;100.00;98781.25;10350267;28;20054;-61
2024/01/03 19:38:30;;;;;;;5.43;2.30;;;;;;;8.91;100.00;98781.78;10345869;28;20052;-61
2024/01/03 19:43:52;;;;;;;8.60;2.10;;;;;;;8.90;100.00;98788.66;10354846;28;20058;-61
2024/01/03 19:49:14;;;;;;;4.07;2.30;;;;;;;8.89;100.00;98787.03;10354983;28;20049;-61
2024/01/03 19:54:36;;;;;;;12.05;2.40;;;;;;;8.86;100.00;98792.31;10348312;28;20510;-60
2024/01/03 19:59:58;;;;;;;6.88;2.60;;;;;;;8.88;100.00;98805.97;10351668;28;20144;-60
2024/01/03 20:05:20;;;;;;;8.45;2.60;;;;;;;8.86;100.00;98807.00;10372496;28;20057;-60
2024/01/03 20:10:42;;;;;;;10.18;2.80;;;;;;;8.85;100.00;98811.31;10363227;28;20057;-60
2024/01/03 20:16:04;;;;;;;5.13;2.58;;;;;;;8.88;100.00;98810.31;10361049;28;20068;-61
2024/01/03 20:21:26;;;;;;;6.55;2.70;;;;;;;8.88;100.00;98816.28;10346850;28;20049;-60
2024/01/03 20:26:48;;;;;;;5.55;2.75;;;;;;;8.92;100.00;98822.94;10364109;28;20451;-61
2024/01/03 20:32:10;;;;;;;6.90;2.92;;;;;;;8.90;100.00;98829.94;10348737;28;20046;-61
2024/01/03 20:37:34;;;;;;;11.05;3.75;;;;;;;8.84;100.00;98832.03;10344388;28;20050;-60
2024/01/03 20:42:57;;;;;;;11.07;3.70;;;;;;;8.86;100.00;98843.09;10350130;28;20056;-60
2024/01/03 20:48:18;;;;;;;10.82;3.60;;;;;;;8.83;100.00;98843.25;10348961;28;20379;-61
2024/01/03 20:53:40;;;;;;;10.25;3.75;;;;;;;8.79;100.00;98847.75;10349891;28;20049;-61
2024/01/03 20:59:02;;;;;;;12.73;3.13;;;;;;;8.75;100.00;98860.91;10356773;28;21168;-60
2024/01/03 21:04:24;;;;;;;12.32;2.88;;;;;;;8.70;100.00;98868.88;10342199;28;20051;-60
2024/01/03 21:09:45;;;;;;;6.95;2.53;;;;;;;8.71;100.00;98869.72;10333588;28;20061;-60
2024/01/03 21:15:07;;;;;;;7.05;2.70;;;;;;;8.70;100.00;98874.03;10343918;28;20056;-60
2024/01/03 21:20:29;;;;;;;5.97;2.80;;;;;;;8.70;100.00;98861.13;10337429;28;20053;-62
2024/01/03 21:25:51;;;;;;;9.18;2.40;;;;;;;8.67;100.00;98855.31;10340531;28;20082;-60
2024/01/03 21:31:13;;;;;;;6.63;2.70;;;;;;;8.66;100.00;98866.56;10349057;28;20261;-60
2024/01/03 21:36:39;;;;;;;9.52;2.65;;;;;;;8.67;100.00;98878.50;10342926;28;20129;-62
2024/01/03 21:42:02;;;;;;;9.30;2.65;;;;;;;8.64;100.00;98874.38;10348403;28;20050;-61
2024/01/03 21:47:23;;;;;;;8.93;2.80;;;;;;;8.66;100.00;98887.19;10353908;28;20557;-61
2024/01/03 21:52:49;;;;;;;8.43;2.72;;;;;;;8.64;100.00;98884.69;10345583;28;20134;-60
2024/01/03 21:58:10;;;;;;;12.23;2.87;;;;;;;8.65;100.00;98896.66;10349110;28;20073;-60
2024/01/03 22:03:32;;;;;;;5.88;2.35;;;;;;;8.63;100.00;98905.38;10346610;28;20037;-61
2024/01/03 22:08:54;;;;;;;6.05;2.20;;;;;;;8.55;100.00;98905.78;10346060;28;20065;-60
2024/01/03 22:14:17;;;;;;;5.10;2.03;;;;;;;8.53;100.00;98920.50;10348404;28;20035;-60
2024/01/03 22:19:38;;;;;;;5.88;2.20;;;;;;;8.48;100.00;98929.41;10364654;28;20443;-60
2024/01/03 22:25:00;;;;;;;4.78;1.90;;;;;;;8.45;100.00;98925.22;10361420;28;20079;-61
2024/01/03 22:30:22;;;;;;;3.63;1.88;;;;;;;8.43;100.00;98926.19;10352828;28;20050;-60
2024/01/03 22:35:44;;;;;;;5.07;1.80;;;;;;;8.41;100.00;98938.34;10344641;28;20052;-60
2024/01/03 22:41:06;;;;;;;2.83;1.77;;;;;;;8.39;100.00;98940.19;10354266;28;20052;-60
2024/01/03 22:46:29;;;;;;;5.75;1.77;;;;;;;8.36;100.00;98951.47;10352060;28;20052;-60
2024/01/03 22:51:50;;;;;;;7.38;1.67;;;;;;;8.33;100.00;98943.91;10353093;28;20199;-60
2024/01/03 22:57:12;;;;;;;3.35;1.80;;;;;;;8.31;100.00;98937.16;10357481;28;20068;-60
2024/01/03 23:02:34;;;;;;;9.63;2.08;;;;;;;8.29;100.00;98952.69;10350029;28;20415;-60
2024/01/03 23:07:56;;;;;;;5.82;1.90;;;;;;;8.27;100.00;98957.09;10360674;28;20060;-61
2024/01/03 23:13:17;;;;;;;4.53;1.90;;;;;;;8.22;100.00;98959.03;10347410;28;20042;-61
2024/01/03 23:18:39;;;;;;;4.82;1.65;;;;;;;8.16;100.00;98961.91;10351149;28;20081;-61
2024/01/03 23:24:01;;;;;;;5.40;1.70;;;;;;;8.14;100.00;98964.59;10353472;28;20538;-61
2024/01/03 23:29:22;;;;;;;2.35;1.35;;;;;;;8.15;100.00;98978.28;10343830;28;20060;-60
2024/01/03 23:34:44;;;;;;;5.22;1.35;;;;;;;8.15;100.00;98986.00;10350019;28;20050;-60
2024/01/03 23:40:07;;;;;;;7.80;1.48;;;;;;;8.13;100.00;98980.09;10351943;28;20058;-60
2024/01/03 23:45:28;;;;;;;3.85;1.27;;;;;;;8.05;100.00;98987.38;10354292;28;20492;-60
2024/01/03 23:50:50;;;;;;;3.30;1.20;;;;;;;8.04;100.00;99006.31;10351495;28;20050;-60
2024/01/03 23:56:21;;;;;;;4.07;0.95;;;;;;;7.96;100.00;99004.13;10361386;28;20057;-60
